Time;durP1;ratioP1;P1;durP2;ratioP2;P2;SDS_P1;SDS_P2;PMS_P1;PMS_P2;Temp;Humidity;BMP_temperature;BMP_pressure;BME280_temperature;BME280_humidity;BME280_pressure;Samples;Min_cycle;Max_cycle;Signal;HPM_P1;HPM_P2
2023/12/08 00:00:34;;;;;;;21.17;14.57;;;2.20;99.90;;;;;;5071291;28;20208;-61
2023/12/08 00:03:02;;;;;;;28.35;16.08;;;2.30;99.90;;;;;;5064793;28;20811;-60
2023/12/08 00:05:31;;;;;;;18.75;13.68;;;2.30;99.90;;;;;;5052188;28;20632;-60
2023/12/08 00:07:59;;;;;;;22.35;13.98;;;2.30;99.90;;;;;;5062443;28;20597;-61
2023/12/08 00:10:27;;;;;;;22.27;14.13;;;2.30;99.90;;;;;;5057883;28;20205;-61
2023/12/08 00:12:55;;;;;;;24.35;15.00;;;2.30;99.90;;;;;;5066891;28;20210;-61
2023/12/08 00:15:23;;;;;;;21.65;14.60;;;2.30;99.90;;;;;;5070545;28;20205;-60
2023/12/08 00:17:51;;;;;;;22.98;14.77;;;2.30;99.90;;;;;;5064072;28;20579;-61
2023/12/08 00:20:19;;;;;;;22.63;14.63;;;2.30;99.90;;;;;;5063838;28;20583;-60
2023/12/08 00:22:48;;;;;;;26.00;14.88;;;2.40;99.90;;;;;;5073681;28;20217;-61
2023/12/08 00:25:16;;;;;;;23.65;15.55;;;2.40;99.90;;;;;;5068222;28;20205;-61
2023/12/08 00:27:44;;;;;;;22.20;15.05;;;2.30;99.90;;;;;;5068089;28;20233;-61
2023/12/08 00:30:12;;;;;;;23.08;14.90;;;2.30;99.90;;;;;;5073251;28;20222;-61
2023/12/08 00:32:40;;;;;;;20.30;13.98;;;2.30;99.90;;;;;;5074169;28;20254;-61
2023/12/08 00:35:08;;;;;;;21.85;13.75;;;2.30;99.90;;;;;;5060726;28;20312;-61
2023/12/08 00:37:36;;;;;;;24.67;15.07;;;2.30;99.90;;;;;;5065099;28;20253;-61
2023/12/08 00:40:08;;;;;;;21.15;14.50;;;2.30;99.90;;;;;;5067210;28;20642;-61
2023/12/08 00:42:36;;;;;;;22.75;14.13;;;2.30;99.90;;;;;;5072742;28;20206;-60
2023/12/08 00:45:04;;;;;;;21.90;14.52;;;2.30;99.90;;;;;;5057554;28;20251;-60
2023/12/08 00:47:35;;;;;;;20.13;14.23;;;2.30;99.90;;;;;;5070365;28;20255;-61
2023/12/08 00:50:04;;;;;;;22.38;14.70;;;2.30;99.90;;;;;;5062257;28;20300;-61
2023/12/08 00:52:32;;;;;;;23.30;14.07;;;2.30;99.90;;;;;;5066402;28;20259;-61
2023/12/08 00:54:59;;;;;;;20.02;13.88;;;2.30;99.90;;;;;;5067107;28;20667;-60
2023/12/08 00:57:29;;;;;;;22.88;13.57;;;2.30;99.90;;;;;;5069260;28;20253;-60
2023/12/08 00:59:57;;;;;;;21.02;13.90;;;2.40;99.90;;;;;;5071455;28;20213;-61
2023/12/08 01:02:26;;;;;;;21.58;14.48;;;2.40;99.90;;;;;;5073389;28;20258;-60
2023/12/08 01:04:54;;;;;;;19.80;13.63;;;2.40;99.90;;;;;;5070354;28;20294;-60
2023/12/08 01:07:22;;;;;;;23.02;13.73;;;2.40;99.90;;;;;;5066438;28;20217;-61
2023/12/08 01:09:50;;;;;;;18.90;13.32;;;2.40;99.90;;;;;;5070710;28;20209;-61
2023/12/08 01:12:18;;;;;;;24.92;13.32;;;2.40;99.90;;;;;;5072698;28;20278;-60
2023/12/08 01:14:48;;;;;;;21.73;14.52;;;2.40;99.90;;;;;;5069437;28;20222;-60
2023/12/08 01:17:16;;;;;;;21.40;14.35;;;2.40;99.90;;;;;;5064731;28;20221;-61
2023/12/08 01:19:44;;;;;;;19.13;13.23;;;2.40;99.90;;;;;;5070535;28;20283;-60
2023/12/08 01:22:13;;;;;;;21.20;13.70;;;2.40;99.90;;;;;;5065824;28;20714;-61
2023/12/08 01:24:41;;;;;;;24.40;15.35;;;2.40;99.90;;;;;;5065631;28;20201;-60
2023/12/08 01:27:08;;;;;;;19.70;13.98;;;2.40;99.90;;;;;;5070834;28;20343;-60
2023/12/08 01:29:37;;;;;;;21.63;14.00;;;2.40;99.90;;;;;;5068201;28;20553;-58
2023/12/08 01:32:07;;;;;;;21.33;14.50;;;2.40;99.90;;;;;;5068789;28;20214;-61
2023/12/08 01:34:34;;;;;;;19.98;14.15;;;2.40;99.90;;;;;;5070298;28;20307;-60
2023/12/08 01:37:03;;;;;;;21.20;13.98;;;2.40;99.90;;;;;;5072399;28;20260;-60
2023/12/08 01:39:31;;;;;;;22.23;14.15;;;2.40;99.90;;;;;;5071971;28;20205;-60
2023/12/08 01:41:58;;;;;;;22.67;13.80;;;2.40;99.90;;;;;;5070760;28;20232;-60
2023/12/08 01:44:26;;;;;;;19.70;13.55;;;2.40;99.90;;;;;;5059334;28;20726;-61
2023/12/08 01:46:54;;;;;;;19.75;13.65;;;2.40;99.90;;;;;;5065315;28;20268;-61
2023/12/08 01:49:24;;;;;;;20.02;14.18;;;2.40;99.90;;;;;;5073121;28;20209;-61
2023/12/08 01:51:52;;;;;;;20.27;13.90;;;2.40;99.90;;;;;;5065679;28;20674;-61
2023/12/08 01:54:20;;;;;;;21.95;14.40;;;2.40;99.90;;;;;;5070538;28;20244;-61
2023/12/08 01:56:48;;;;;;;19.52;14.15;;;2.50;99.90;;;;;;5070210;28;20213;-61
2023/12/08 01:59:16;;;;;;;19.67;13.40;;;2.50;99.90;;;;;;5072172;28;20212;-60
2023/12/08 02:01:44;;;;;;;18.95;13.02;;;2.50;99.90;;;;;;5072262;28;20224;-61
2023/12/08 02:04:11;;;;;;;21.52;14.27;;;2.50;99.90;;;;;;5072705;28;20201;-60
2023/12/08 02:06:41;;;;;;;21.52;13.75;;;2.50;99.90;;;;;;5072751;28;20201;-60
2023/12/08 02:09:09;;;;;;;21.58;13.65;;;2.50;99.90;;;;;;5070037;28;20286;-61
2023/12/08 02:11:37;;;;;;;20.52;14.50;;;2.50;99.90;;;;;;5072960;28;20201;-60
2023/12/08 02:14:05;;;;;;;21.45;13.40;;;2.50;99.90;;;;;;5069296;28;20240;-61
2023/12/08 02:16:37;;;;;;;21.40;13.82;;;2.50;99.90;;;;;;5072592;28;20259;-61
2023/12/08 02:19:05;;;;;;;22.58;13.32;;;2.50;99.90;;;;;;5064049;28;20278;-61
2023/12/08 02:21:33;;;;;;;21.77;13.13;;;2.50;99.90;;;;;;5070490;28;20208;-61
2023/12/08 02:24:02;;;;;;;19.23;14.32;;;2.50;99.90;;;;;;5071227;28;20201;-61
2023/12/08 02:26:30;;;;;;;21.85;14.70;;;2.50;99.90;;;;;;5055108;28;20309;-61
2023/12/08 02:28:58;;;;;;;18.27;13.25;;;2.50;99.90;;;;;;5061474;28;20233;-61
2023/12/08 02:31:28;;;;;;;22.67;13.57;;;2.50;99.90;;;;;;5069737;28;20267;-60
2023/12/08 02:33:56;;;;;;;20.83;14.27;;;2.50;99.90;;;;;;5071659;28;20224;-60
2023/12/08 02:36:24;;;;;;;17.55;12.55;;;2.50;99.90;;;;;;5061474;28;20679;-60
2023/12/08 02:38:51;;;;;;;21.25;13.45;;;2.50;99.90;;;;;;5067041;28;20940;-61
2023/12/08 02:41:21;;;;;;;20.83;13.88;;;2.50;99.90;;;;;;5071331;28;20201;-60
2023/12/08 02:43:48;;;;;;;20.05;13.20;;;2.50;99.90;;;;;;5071622;28;20300;-60
2023/12/08 02:46:16;;;;;;;20.42;13.63;;;2.50;99.90;;;;;;5068355;28;20640;-61
2023/12/08 02:48:43;;;;;;;21.45;13.57;;;2.50;99.90;;;;;;5068847;28;20271;-59
2023/12/08 02:51:20;;;;;;;22.17;14.27;;;2.50;99.90;;;;;;5065548;28;20266;-60
2023/12/08 02:53:47;;;;;;;21.63;13.70;;;2.50;99.90;;;;;;5071374;28;20201;-60
2023/12/08 02:56:15;;;;;;;21.65;14.50;;;2.50;99.90;;;;;;5061231;28;20209;-60
2023/12/08 02:58:44;;;;;;;20.13;14.52;;;2.50;99.90;;;;;;5071553;28;20229;-61
2023/12/08 03:01:14;;;;;;;21.92;13.93;;;2.50;99.90;;;;;;5071183;28;20236;-60
2023/12/08 03:03:42;;;;;;;19.40;13.80;;;2.50;99.90;;;;;;5071509;28;20227;-61
2023/12/08 03:06:10;;;;;;;22.98;14.20;;;2.50;99.90;;;;;;5067237;28;20204;-61
2023/12/08 03:08:39;;;;;;;19.08;13.88;;;2.50;99.90;;;;;;5062024;28;20308;-60
2023/12/08 03:11:07;;;;;;;20.77;13.63;;;2.50;99.90;;;;;;5067668;28;20237;-60
2023/12/08 03:13:34;;;;;;;19.73;12.90;;;2.50;99.90;;;;;;5067852;28;20251;-61
2023/12/08 03:16:04;;;;;;;19.40;14.18;;;2.50;99.90;;;;;;5069669;28;20274;-61
2023/12/08 03:18:32;;;;;;;23.58;14.35;;;2.50;99.90;;;;;;5066578;28;20652;-60
2023/12/08 03:21:00;;;;;;;19.48;13.70;;;2.50;99.90;;;;;;5070809;28;20258;-61
2023/12/08 03:23:28;;;;;;;19.80;14.15;;;2.60;99.90;;;;;;5067166;28;20725;-60
2023/12/08 03:25:56;;;;;;;25.48;14.45;;;2.50;99.90;;;;;;5066098;28;20233;-61
2023/12/08 03:28:24;;;;;;;21.65;13.75;;;2.50;99.90;;;;;;5070741;28;20286;-61
2023/12/08 03:30:51;;;;;;;18.80;13.25;;;2.50;99.90;;;;;;5071368;28;20205;-61
2023/12/08 03:33:21;;;;;;;19.33;12.07;;;2.50;99.90;;;;;;5071094;28;20205;-60
2023/12/08 03:35:49;;;;;;;21.15;14.02;;;2.50;99.90;;;;;;5070848;28;20225;-61
2023/12/08 03:38:17;;;;;;;20.85;14.07;;;2.50;99.90;;;;;;5068810;28;20274;-60
2023/12/08 03:40:45;;;;;;;24.48;14.77;;;2.50;99.90;;;;;;5065867;28;20569;-60
2023/12/08 03:43:12;;;;;;;23.90;15.43;;;2.50;99.90;;;;;;5066440;28;20718;-60
2023/12/08 03:45:40;;;;;;;21.88;14.52;;;2.50;99.90;;;;;;5060043;28;20279;-60
2023/12/08 03:48:08;;;;;;;21.52;14.00;;;2.50;99.90;;;;;;5070565;28;20630;-60
2023/12/08 03:50:37;;;;;;;22.02;14.60;;;2.50;99.90;;;;;;5067150;28;20212;-60
2023/12/08 03:53:05;;;;;;;22.70;15.95;;;2.50;99.90;;;;;;5067804;28;20220;-61
2023/12/08 03:55:33;;;;;;;21.65;14.75;;;2.60;99.90;;;;;;5066567;28;20639;-60
2023/12/08 03:58:01;;;;;;;19.75;13.27;;;2.60;99.90;;;;;;5070785;28;20283;-60
2023/12/08 04:00:29;;;;;;;23.77;14.18;;;2.60;99.90;;;;;;5071131;28;20626;-61
2023/12/08 04:02:57;;;;;;;19.58;13.52;;;2.60;99.90;;;;;;5064797;28;20296;-61
2023/12/08 04:05:25;;;;;;;23.08;15.32;;;2.60;99.90;;;;;;5066822;28;20205;-60
2023/12/08 04:07:54;;;;;;;23.40;14.95;;;2.60;99.90;;;;;;5070324;28;20225;-61
2023/12/08 04:10:22;;;;;;;24.70;15.23;;;2.60;99.90;;;;;;5069631;28;20742;-60
2023/12/08 04:12:50;;;;;;;20.95;14.07;;;2.60;99.90;;;;;;5069929;28;20274;-59
2023/12/08 04:15:18;;;;;;;24.88;14.90;;;2.60;99.90;;;;;;5063892;28;20246;-58
2023/12/08 04:17:46;;;;;;;22.77;14.95;;;2.60;99.90;;;;;;5059250;28;20229;-61
2023/12/08 04:20:14;;;;;;;24.15;14.57;;;2.60;99.90;;;;;;5069849;28;20553;-60
2023/12/08 04:22:42;;;;;;;22.52;14.57;;;2.60;99.90;;;;;;5069360;28;20237;-60
2023/12/08 04:25:12;;;;;;;19.88;13.93;;;2.60;99.90;;;;;;5066013;28;20209;-61
2023/12/08 04:27:40;;;;;;;21.20;15.02;;;2.60;99.90;;;;;;5064577;28;20229;-61
2023/12/08 04:30:08;;;;;;;21.48;14.93;;;2.60;99.90;;;;;;5070608;28;20233;-61
2023/12/08 04:32:36;;;;;;;22.50;14.23;;;2.60;99.90;;;;;;5062307;28;20213;-61
2023/12/08 04:35:05;;;;;;;25.38;15.88;;;2.60;99.90;;;;;;5068498;28;20763;-61
2023/12/08 04:37:33;;;;;;;22.75;14.40;;;2.60;99.90;;;;;;5067761;28;20268;-60
2023/12/08 04:40:01;;;;;;;22.52;14.73;;;2.60;99.90;;;;;;5067417;28;20595;-61
2023/12/08 04:42:30;;;;;;;21.05;15.57;;;2.60;99.90;;;;;;5061230;28;20217;-60
2023/12/08 04:44:59;;;;;;;25.52;14.30;;;2.60;99.90;;;;;;5067894;28;20217;-61
2023/12/08 04:47:27;;;;;;;23.08;14.25;;;2.60;99.90;;;;;;5068732;28;20359;-61
2023/12/08 04:49:55;;;;;;;23.08;15.18;;;2.70;99.90;;;;;;5060337;28;20202;-61
2023/12/08 04:52:23;;;;;;;22.60;15.15;;;2.60;99.90;;;;;;5066504;28;20202;-60
2023/12/08 04:54:51;;;;;;;23.27;15.05;;;2.60;99.90;;;;;;5068841;28;20197;-59
2023/12/08 04:57:19;;;;;;;23.90;15.95;;;2.60;99.90;;;;;;5066265;28;20229;-61
2023/12/08 04:59:48;;;;;;;27.55;17.25;;;2.60;99.90;;;;;;5067227;28;20202;-60
2023/12/08 05:02:16;;;;;;;24.00;15.40;;;2.60;99.90;;;;;;5065464;28;20208;-61
2023/12/08 05:04:44;;;;;;;21.95;14.77;;;2.60;99.90;;;;;;5066165;28;20291;-60
2023/12/08 05:07:12;;;;;;;23.77;15.30;;;2.60;99.90;;;;;;5072501;28;20233;-59
2023/12/08 05:09:40;;;;;;;24.05;16.10;;;2.60;99.90;;;;;;5071607;28;20292;-60
2023/12/08 05:12:08;;;;;;;24.25;15.52;;;2.50;99.90;;;;;;5067444;28;20209;-60
2023/12/08 05:14:35;;;;;;;23.45;15.23;;;2.50;99.90;;;;;;5068805;28;20202;-60
2023/12/08 05:17:05;;;;;;;22.67;14.75;;;2.50;99.90;;;;;;5065523;28;20237;-61
2023/12/08 05:19:33;;;;;;;25.98;16.08;;;2.50;99.90;;;;;;5069171;28;20666;-61
2023/12/08 05:22:02;;;;;;;26.48;15.55;;;2.50;99.90;;;;;;5059024;28;20229;-60
2023/12/08 05:24:30;;;;;;;20.73;14.52;;;2.50;99.90;;;;;;5061964;28;20205;-60
2023/12/08 05:26:58;;;;;;;24.48;14.68;;;2.40;99.90;;;;;;5061556;28;20297;-60
2023/12/08 05:29:26;;;;;;;22.20;14.95;;;2.40;99.90;;;;;;5056102;28;20622;-60
2023/12/08 05:31:54;;;;;;;26.13;16.05;;;2.40;99.90;;;;;;5066158;28;20198;-59
2023/12/08 05:34:23;;;;;;;25.95;15.68;;;2.40;99.90;;;;;;5058727;28;20205;-61
2023/12/08 05:36:51;;;;;;;26.05;16.33;;;2.40;99.90;;;;;;5058373;28;20584;-60
2023/12/08 05:39:19;;;;;;;31.77;17.20;;;2.40;99.90;;;;;;5062019;28;20289;-61
2023/12/08 05:41:47;;;;;;;33.92;17.42;;;2.40;99.90;;;;;;5066258;28;20304;-61
2023/12/08 05:44:16;;;;;;;40.85;18.33;;;2.30;99.90;;;;;;5072901;28;20640;-60
2023/12/08 05:46:43;;;;;;;30.48;16.42;;;2.40;99.90;;;;;;5069840;28;20284;-61
2023/12/08 05:49:11;;;;;;;23.77;16.38;;;2.30;99.90;;;;;;5069778;28;20209;-61
2023/12/08 05:51:41;;;;;;;27.85;16.33;;;2.30;99.90;;;;;;5070125;28;20197;-61
2023/12/08 05:54:09;;;;;;;26.00;15.73;;;2.30;99.90;;;;;;5069754;28;20651;-61
2023/12/08 05:56:36;;;;;;;29.63;16.05;;;2.30;99.90;;;;;;5065509;28;20590;-60
2023/12/08 05:59:05;;;;;;;24.75;15.60;;;2.40;99.90;;;;;;5070303;28;20270;-61
2023/12/08 06:01:33;;;;;;;23.83;14.95;;;2.40;99.90;;;;;;5064983;28;20600;-61
2023/12/08 06:04:01;;;;;;;24.83;15.07;;;2.30;99.90;;;;;;5060851;28;20301;-60
2023/12/08 06:06:29;;;;;;;30.13;16.83;;;2.30;99.90;;;;;;5069716;28;20202;-60
2023/12/08 06:08:58;;;;;;;25.92;16.98;;;2.30;99.90;;;;;;5069195;28;20761;-60
2023/12/08 06:11:28;;;;;;;24.98;14.82;;;2.30;99.90;;;;;;5070521;28;20209;-61
2023/12/08 06:13:56;;;;;;;24.67;14.95;;;2.30;99.90;;;;;;5072060;28;20258;-61
2023/12/08 06:16:25;;;;;;;32.05;18.02;;;2.30;99.90;;;;;;5072007;28;20274;-61
2023/12/08 06:18:53;;;;;;;25.55;16.52;;;2.30;99.90;;;;;;5068258;28;20229;-61
2023/12/08 06:21:21;;;;;;;27.98;17.25;;;2.30;99.90;;;;;;5055942;28;20205;-61
2023/12/08 06:23:49;;;;;;;29.77;17.52;;;2.30;99.90;;;;;;5066466;28;20748;-61
2023/12/08 06:26:19;;;;;;;25.83;16.55;;;2.30;99.90;;;;;;5069491;28;20879;-61
2023/12/08 06:28:47;;;;;;;29.33;17.55;;;2.30;99.90;;;;;;5059749;28;20337;-61
2023/12/08 06:31:15;;;;;;;28.67;17.02;;;2.30;99.90;;;;;;5063181;28;20240;-61
2023/12/08 06:33:43;;;;;;;27.20;16.92;;;2.30;99.90;;;;;;5065476;28;20293;-62
2023/12/08 06:36:11;;;;;;;29.92;18.50;;;2.30;99.90;;;;;;5055820;28;20202;-62
2023/12/08 06:38:39;;;;;;;33.60;18.58;;;2.30;99.90;;;;;;5049551;28;20230;-61
2023/12/08 06:41:07;;;;;;;32.78;18.48;;;2.30;99.90;;;;;;5053636;28;20263;-62
2023/12/08 06:43:36;;;;;;;33.00;19.33;;;2.20;99.90;;;;;;5059493;28;20286;-62
2023/12/08 06:46:05;;;;;;;30.23;17.48;;;2.30;99.90;;;;;;5054414;28;20316;-61
2023/12/08 06:48:33;;;;;;;29.50;18.48;;;2.30;99.90;;;;;;5055694;28;20253;-61
2023/12/08 06:51:03;;;;;;;32.10;18.75;;;2.30;99.90;;;;;;5055081;28;20672;-62
2023/12/08 06:53:31;;;;;;;34.42;19.83;;;2.30;99.90;;;;;;5055429;28;20205;-61
2023/12/08 06:55:59;;;;;;;31.02;18.23;;;2.30;99.90;;;;;;5052733;28;20230;-61
2023/12/08 06:58:27;;;;;;;30.05;18.25;;;2.30;99.90;;;;;;5055902;28;20716;-62
2023/12/08 07:00:56;;;;;;;32.22;19.27;;;2.30;99.90;;;;;;5052768;28;20233;-64
2023/12/08 07:03:24;;;;;;;30.73;17.67;;;2.30;99.90;;;;;;5054735;28;20207;-63
2023/12/08 07:05:52;;;;;;;30.25;18.35;;;2.30;99.90;;;;;;5058469;28;20213;-64
2023/12/08 07:08:20;;;;;;;30.98;17.98;;;2.30;99.90;;;;;;5057929;28;20221;-64
2023/12/08 07:10:48;;;;;;;29.73;17.25;;;2.30;99.90;;;;;;5057683;28;20702;-63
2023/12/08 07:13:16;;;;;;;28.63;18.25;;;2.30;99.90;;;;;;5058621;28;20711;-63
2023/12/08 07:15:44;;;;;;;27.77;18.33;;;2.30;99.90;;;;;;5056547;28;20292;-64
2023/12/08 07:18:13;;;;;;;29.40;17.83;;;2.30;99.90;;;;;;5060681;28;20316;-63
2023/12/08 07:20:41;;;;;;;27.65;17.40;;;2.30;99.90;;;;;;5062623;28;20212;-64
2023/12/08 07:23:10;;;;;;;26.20;17.02;;;2.30;99.90;;;;;;5054474;28;20216;-64
2023/12/08 07:25:38;;;;;;;26.25;17.08;;;2.30;99.90;;;;;;5052295;28;20236;-64
2023/12/08 07:28:05;;;;;;;31.20;18.25;;;2.30;99.90;;;;;;5054383;28;20238;-63
2023/12/08 07:30:33;;;;;;;31.40;19.35;;;2.30;99.90;;;;;;5049586;28;20212;-62
2023/12/08 07:33:03;;;;;;;31.27;18.70;;;2.30;99.90;;;;;;5053504;28;20338;-63
2023/12/08 07:35:33;;;;;;;32.13;19.13;;;2.30;99.90;;;;;;5052088;28;20292;-62
2023/12/08 07:38:01;;;;;;;33.40;18.92;;;2.30;99.90;;;;;;5050652;28;20236;-62
2023/12/08 07:40:29;;;;;;;31.38;18.70;;;2.30;99.90;;;;;;5061009;28;20678;-63
2023/12/08 07:42:57;;;;;;;32.30;19.95;;;2.30;99.90;;;;;;5060403;28;20259;-63
2023/12/08 07:45:25;;;;;;;36.00;19.70;;;2.30;99.90;;;;;;5057948;28;20284;-63
2023/12/08 07:47:53;;;;;;;30.73;18.63;;;2.30;99.90;;;;;;5056690;28;20230;-62
2023/12/08 07:50:22;;;;;;;31.45;19.20;;;2.30;99.90;;;;;;5062154;28;20232;-62
2023/12/08 07:52:52;;;;;;;35.63;20.85;;;2.30;99.90;;;;;;5055425;28;20289;-62
2023/12/08 07:55:20;;;;;;;33.47;19.73;;;2.30;99.90;;;;;;5058881;28;20209;-62
2023/12/08 07:57:48;;;;;;;30.58;19.17;;;2.40;99.90;;;;;;5063996;28;20221;-62
2023/12/08 08:00:16;;;;;;;34.20;18.55;;;2.30;99.90;;;;;;5061785;28;20206;-62
2023/12/08 08:02:44;;;;;;;34.17;20.00;;;2.30;99.90;;;;;;5055538;28;20691;-62
2023/12/08 08:05:13;;;;;;;37.00;20.20;;;2.30;99.90;;;;;;5058682;28;20209;-62
2023/12/08 08:07:41;;;;;;;38.20;20.25;;;2.30;99.90;;;;;;5060939;28;20253;-63
2023/12/08 08:10:10;;;;;;;35.05;20.55;;;2.40;99.90;;;;;;5060892;28;20256;-62
2023/12/08 08:12:38;;;;;;;40.42;23.33;;;2.40;99.90;;;;;;5056508;28;20212;-63
2023/12/08 08:15:09;;;;;;;38.72;23.13;;;2.40;99.90;;;;;;5057780;28;20212;-63
2023/12/08 08:17:37;;;;;;;35.40;20.67;;;2.40;99.90;;;;;;5061532;28;20256;-62
2023/12/08 08:20:06;;;;;;;39.42;21.85;;;2.40;99.90;;;;;;5060382;28;20206;-62
2023/12/08 08:22:34;;;;;;;32.05;19.88;;;2.40;99.90;;;;;;5057405;28;20274;-62
2023/12/08 08:25:03;;;;;;;33.35;18.77;;;2.40;99.90;;;;;;5057225;28;20238;-63
2023/12/08 08:27:33;;;;;;;32.13;20.00;;;2.40;99.90;;;;;;5061189;28;20574;-62
2023/12/08 08:30:01;;;;;;;33.42;20.40;;;2.50;99.90;;;;;;5062977;28;20244;-62
2023/12/08 08:32:29;;;;;;;36.22;20.00;;;2.50;99.90;;;;;;5053713;28;20259;-63
2023/12/08 08:34:58;;;;;;;35.30;19.83;;;2.50;99.90;;;;;;5057407;28;20206;-63
2023/12/08 08:37:27;;;;;;;40.78;20.88;;;2.50;99.90;;;;;;5061672;28;20263;-62
2023/12/08 08:39:55;;;;;;;39.67;21.60;;;2.50;99.90;;;;;;5061806;28;20209;-63
2023/12/08 08:42:23;;;;;;;36.03;20.42;;;2.50;99.90;;;;;;5062256;28;20212;-62
2023/12/08 08:44:52;;;;;;;42.50;21.52;;;2.50;99.90;;;;;;5060268;28;20237;-62
2023/12/08 08:47:20;;;;;;;37.25;20.65;;;2.50;99.90;;;;;;5064696;28;20237;-63
2023/12/08 08:49:48;;;;;;;40.53;20.80;;;2.50;99.90;;;;;;5066086;28;20264;-62
2023/12/08 08:52:18;;;;;;;36.85;20.98;;;2.50;99.90;;;;;;5060569;28;20209;-62
2023/12/08 08:54:46;;;;;;;39.50;20.70;;;2.50;99.90;;;;;;5062042;28;20634;-62
2023/12/08 08:57:14;;;;;;;37.45;20.48;;;2.60;99.90;;;;;;5063796;28;20230;-63
2023/12/08 08:59:42;;;;;;;41.40;21.15;;;2.50;99.90;;;;;;5062570;28;20609;-62
2023/12/08 09:02:11;;;;;;;34.65;20.17;;;2.60;99.90;;;;;;5058199;28;20206;-63
2023/12/08 09:04:39;;;;;;;33.85;20.38;;;2.60;99.90;;;;;;5056363;28;20241;-63
2023/12/08 09:07:07;;;;;;;35.22;21.20;;;2.60;99.90;;;;;;5061415;28;20327;-62
2023/12/08 09:09:35;;;;;;;35.83;20.38;;;2.60;99.90;;;;;;5060769;28;20214;-63
2023/12/08 09:12:09;;;;;;;36.28;19.27;;;2.60;99.90;;;;;;5057808;28;20217;-63
2023/12/08 09:14:38;;;;;;;34.47;19.48;;;2.60;99.90;;;;;;5056896;28;20209;-62
2023/12/08 09:17:06;;;;;;;35.33;20.25;;;2.60;99.90;;;;;;5062932;28;20249;-63
2023/12/08 09:19:35;;;;;;;37.92;22.70;;;2.60;99.90;;;;;;5059882;28;20217;-62
2023/12/08 09:22:05;;;;;;;35.35;20.77;;;2.60;99.90;;;;;;5060328;28;20661;-62
2023/12/08 09:24:33;;;;;;;33.20;20.38;;;2.60;99.90;;;;;;5057598;28;20464;-62
2023/12/08 09:27:03;;;;;;;33.35;20.98;;;2.60;99.90;;;;;;5062162;28;20253;-62
2023/12/08 09:29:30;;;;;;;35.80;21.48;;;2.60;99.90;;;;;;5066784;28;20193;-63
2023/12/08 09:31:58;;;;;;;37.33;21.50;;;2.60;99.90;;;;;;5061074;28;20267;-63
2023/12/08 09:34:26;;;;;;;33.72;20.17;;;2.70;99.90;;;;;;5062231;28;20202;-62
2023/12/08 09:36:56;;;;;;;41.03;22.30;;;2.70;99.90;;;;;;5062895;28;20205;-63
2023/12/08 09:39:44;;;;;;;38.28;20.83;;;2.70;99.90;;;;;;5059874;28;20264;-62
2023/12/08 09:42:15;;;;;;;40.00;23.45;;;2.70;99.90;;;;;;5059621;28;20210;-62
2023/12/08 09:44:43;;;;;;;71.22;36.30;;;2.70;99.90;;;;;;5060853;28;20224;-62
2023/12/08 09:47:12;;;;;;;60.08;30.70;;;2.70;99.90;;;;;;5062542;28;20225;-62
2023/12/08 09:49:43;;;;;;;55.55;29.60;;;2.80;99.90;;;;;;5066675;28;20667;-63
2023/12/08 09:52:13;;;;;;;55.30;27.98;;;2.80;99.90;;;;;;5059048;28;20210;-62
2023/12/08 09:54:41;;;;;;;55.20;26.63;;;2.80;99.90;;;;;;5063325;28;20216;-63
2023/12/08 09:57:09;;;;;;;51.85;25.75;;;2.80;99.90;;;;;;5062079;28;20234;-62
2023/12/08 09:59:38;;;;;;;55.53;27.92;;;2.80;99.90;;;;;;5066693;28;20221;-62
2023/12/08 10:02:07;;;;;;;43.40;23.98;;;2.80;99.90;;;;;;5060099;28;20210;-62
2023/12/08 10:04:35;;;;;;;32.42;19.73;;;2.80;99.90;;;;;;5062091;28;20212;-63
2023/12/08 10:07:04;;;;;;;32.78;19.30;;;2.80;99.90;;;;;;5057739;28;20210;-63
2023/12/08 10:09:33;;;;;;;31.60;20.23;;;2.80;99.90;;;;;;5066061;28;20280;-62
2023/12/08 10:12:01;;;;;;;38.22;19.73;;;2.80;99.90;;;;;;5060202;28;20232;-62
2023/12/08 10:14:29;;;;;;;34.80;20.48;;;2.80;99.90;;;;;;5063412;28;20213;-62
2023/12/08 10:16:57;;;;;;;43.42;23.35;;;2.80;99.90;;;;;;5063031;28;20590;-62
2023/12/08 10:19:25;;;;;;;36.03;20.55;;;2.90;99.90;;;;;;5058276;28;20253;-62
2023/12/08 10:22:00;;;;;;;34.67;20.73;;;2.90;99.90;;;;;;5058721;28;20586;-63
2023/12/08 10:24:29;;;;;;;37.17;20.35;;;2.90;99.90;;;;;;5061901;28;20282;-62
2023/12/08 10:26:59;;;;;;;39.17;21.92;;;3.00;99.90;;;;;;5062638;28;20240;-63
2023/12/08 10:29:30;;;;;;;46.95;23.70;;;3.00;99.90;;;;;;5062008;28;20217;-62
2023/12/08 10:31:59;;;;;;;43.95;21.77;;;3.00;99.90;;;;;;5061530;28;20739;-62
2023/12/08 10:34:27;;;;;;;47.05;31.83;;;3.10;99.90;;;;;;5061990;28;20218;-63
2023/12/08 10:36:55;;;;;;;48.50;32.03;;;3.10;99.90;;;;;;5063289;28;20761;-62
2023/12/08 10:39:23;;;;;;;45.45;24.40;;;3.10;99.90;;;;;;5064497;28;20307;-63
2023/12/08 10:41:51;;;;;;;41.97;25.42;;;3.10;99.90;;;;;;5062862;28;20288;-62
2023/12/08 10:44:21;;;;;;;41.70;22.85;;;3.20;99.90;;;;;;5058021;28;20206;-62
2023/12/08 10:46:52;;;;;;;41.10;21.98;;;3.20;99.90;;;;;;5063790;28;20217;-62
2023/12/08 10:49:20;;;;;;;39.25;22.10;;;3.20;99.90;;;;;;5064005;28;20256;-63
2023/12/08 10:51:48;;;;;;;38.17;21.65;;;3.20;99.90;;;;;;5063180;28;20209;-62
2023/12/08 10:54:17;;;;;;;40.38;22.63;;;3.20;99.90;;;;;;5064347;28;20291;-63
2023/12/08 10:56:46;;;;;;;40.17;21.40;;;3.20;99.90;;;;;;5064166;28;20734;-63
2023/12/08 10:59:17;;;;;;;39.63;20.70;;;3.20;99.90;;;;;;5058206;28;20272;-63
2023/12/08 11:01:46;;;;;;;35.95;21.20;;;3.20;99.90;;;;;;5053187;28;20666;-62
2023/12/08 11:04:14;;;;;;;36.00;19.95;;;3.20;99.90;;;;;;5059204;28;20296;-62
2023/12/08 11:06:44;;;;;;;34.65;20.15;;;3.20;99.90;;;;;;5064544;28;20209;-62
2023/12/08 11:09:12;;;;;;;38.47;21.02;;;3.20;99.90;;;;;;5057251;28;20240;-62
2023/12/08 11:11:43;;;;;;;39.25;20.75;;;3.30;99.90;;;;;;5064305;28;20225;-63
2023/12/08 11:14:14;;;;;;;40.60;21.30;;;3.30;99.90;;;;;;5061501;28;20244;-62
2023/12/08 11:16:47;;;;;;;39.08;21.20;;;3.30;99.90;;;;;;5056064;28;20228;-63
2023/12/08 11:19:15;;;;;;;34.58;20.30;;;3.30;99.90;;;;;;5062843;28;20232;-63
2023/12/08 11:21:44;;;;;;;38.17;21.48;;;3.30;99.90;;;;;;5064099;28;20296;-62
2023/12/08 11:24:12;;;;;;;38.65;22.40;;;3.30;99.90;;;;;;5057844;28;20260;-62
2023/12/08 11:26:42;;;;;;;40.38;22.02;;;3.30;99.90;;;;;;5055060;28;20228;-62
2023/12/08 11:29:13;;;;;;;38.88;22.52;;;3.30;99.90;;;;;;5058001;28;20205;-62
2023/12/08 11:31:45;;;;;;;43.63;22.00;;;3.30;99.90;;;;;;5046933;28;20209;-62
2023/12/08 11:34:17;;;;;;;45.25;24.52;;;3.30;99.90;;;;;;5054334;28;20275;-63
2023/12/08 11:36:46;;;;;;;44.33;23.48;;;3.30;99.90;;;;;;5056540;28;20209;-62
2023/12/08 11:39:39;;;;;;;49.70;24.23;;;3.30;99.90;;;;;;5063294;28;20312;-63
2023/12/08 11:42:07;;;;;;;46.22;23.80;;;3.30;99.90;;;;;;5056010;28;20206;-62
2023/12/08 11:44:36;;;;;;;43.95;24.50;;;3.30;99.90;;;;;;5058889;28;20200;-63
2023/12/08 11:47:06;;;;;;;44.50;24.42;;;3.30;99.90;;;;;;5067320;28;20263;-61
2023/12/08 11:49:36;;;;;;;40.22;23.25;;;3.30;99.90;;;;;;5066320;28;20281;-62
2023/12/08 11:52:10;;;;;;;50.00;23.52;;;3.30;99.90;;;;;;5061334;28;20215;-62
2023/12/08 11:55:01;;;;;;;47.33;23.90;;;3.30;99.90;;;;;;5062979;28;20201;-62
2023/12/08 11:57:40;;;;;;;53.15;24.63;;;3.30;99.90;;;;;;5065080;28;20235;-63
2023/12/08 12:00:10;;;;;;;43.35;24.63;;;3.30;99.90;;;;;;5065132;28;20260;-63
2023/12/08 12:02:41;;;;;;;50.22;23.70;;;3.30;99.90;;;;;;5065503;28;20201;-61
2023/12/08 12:05:11;;;;;;;50.28;24.88;;;3.30;99.90;;;;;;5060468;28;20209;-63
2023/12/08 12:07:39;;;;;;;38.80;23.13;;;3.30;99.90;;;;;;5064688;28;20418;-63
2023/12/08 12:10:10;;;;;;;46.83;25.35;;;3.40;99.90;;;;;;5065421;28;20204;-63
2023/12/08 12:12:42;;;;;;;47.20;24.58;;;3.40;99.90;;;;;;5063370;28;20225;-63
2023/12/08 12:15:10;;;;;;;54.28;25.63;;;3.40;99.90;;;;;;5063251;28;20198;-63
2023/12/08 12:17:39;;;;;;;52.25;25.52;;;3.40;99.90;;;;;;5068328;28;20274;-62
2023/12/08 12:20:09;;;;;;;52.80;26.52;;;3.50;99.90;;;;;;5065672;28;20700;-63
2023/12/08 12:22:39;;;;;;;52.78;26.70;;;3.50;99.90;;;;;;5065299;28;20233;-62
2023/12/08 12:25:08;;;;;;;64.85;28.63;;;3.50;99.90;;;;;;5065217;28;20218;-63
2023/12/08 12:27:39;;;;;;;55.25;27.58;;;3.50;99.90;;;;;;5065231;28;20276;-62
2023/12/08 12:30:08;;;;;;;62.35;28.95;;;3.50;99.90;;;;;;5067359;28;20202;-62
2023/12/08 12:32:36;;;;;;;54.10;27.27;;;3.50;99.90;;;;;;5065347;28;20574;-62
2023/12/08 12:35:04;;;;;;;56.35;28.73;;;3.50;99.90;;;;;;5060293;28;20209;-63
2023/12/08 12:37:32;;;;;;;56.35;28.35;;;3.50;99.90;;;;;;5062729;28;20232;-62
2023/12/08 12:40:02;;;;;;;62.90;28.20;;;3.50;99.90;;;;;;5063833;28;20286;-62
2023/12/08 12:42:29;;;;;;;54.80;26.55;;;3.50;99.90;;;;;;5060278;28;20213;-62